createdAt,value
2018-12-12T00:02:13.841Z,81.40
2018-12-12T00:06:18.794Z,81.38
2018-12-12T00:10:23.854Z,81.66
2018-12-12T00:14:29.125Z,81.31
2018-12-12T00:18:34.084Z,81.42
2018-12-12T00:22:39.050Z,81.73
2018-12-12T00:26:43.987Z,81.51
2018-12-12T00:30:48.923Z,81.42
2018-12-12T00:34:53.847Z,81.17
2018-12-12T00:38:58.818Z,81.59
2018-12-12T00:43:04.071Z,81.39
2018-12-12T00:47:09.083Z,81.16
2018-12-12T00:51:14.069Z,81.22
2018-12-12T00:55:19.031Z,81.15
2018-12-12T00:59:24.877Z,81.33
2018-12-12T01:03:29.857Z,81.32
2018-12-12T01:07:34.907Z,81.55
2018-12-12T01:11:58.469Z,81.44
2018-12-12T01:16:03.478Z,81.66
2018-12-12T01:20:08.539Z,82.00
2018-12-12T01:24:13.634Z,82.09
2018-12-12T01:28:18.588Z,82.53
2018-12-12T01:32:23.645Z,82.61
2018-12-12T01:36:29.234Z,82.70
2018-12-12T01:40:34.584Z,82.68
2018-12-12T01:44:39.602Z,82.54
2018-12-12T01:48:44.589Z,83.00
2018-12-12T01:52:49.744Z,82.88
2018-12-12T01:56:54.802Z,82.94
2018-12-12T02:00:59.783Z,82.95
2018-12-12T02:05:04.772Z,82.93
2018-12-12T02:09:09.696Z,82.66
2018-12-12T02:13:35.109Z,82.66
2018-12-12T02:17:40.120Z,82.78
2018-12-12T02:21:45.103Z,82.52
2018-12-12T02:25:50.067Z,82.45
2018-12-12T02:29:55.609Z,82.50
2018-12-12T02:34:00.831Z,82.54
2018-12-12T02:38:05.862Z,82.76
2018-12-12T02:42:10.906Z,82.99
2018-12-12T02:46:16.016Z,82.77
2018-12-12T02:50:20.923Z,82.61
2018-12-12T02:54:25.875Z,82.60
2018-12-12T02:58:30.867Z,82.65
2018-12-12T03:06:48.237Z,82.38
2018-12-12T03:10:53.322Z,82.39
2018-12-12T03:14:58.432Z,82.37
2018-12-12T03:19:03.445Z,82.26
2018-12-12T03:23:08.435Z,82.35
2018-12-12T03:27:13.353Z,82.56
2018-12-12T03:31:18.272Z,82.45
2018-12-12T03:35:23.218Z,82.80
2018-12-12T03:39:28.174Z,82.84
2018-12-12T03:43:33.231Z,82.77
2018-12-12T03:47:38.227Z,82.79
2018-12-12T03:51:50.837Z,82.63
2018-12-12T03:55:55.810Z,82.61
2018-12-12T04:00:00.761Z,82.68
2018-12-12T04:04:05.841Z,82.68
2018-12-12T04:08:10.773Z,82.62
2018-12-12T04:12:15.721Z,82.57
2018-12-12T04:16:20.851Z,82.39
2018-12-12T04:20:25.850Z,82.25
2018-12-12T04:24:30.848Z,82.13
2018-12-12T04:28:35.805Z,81.99
2018-12-12T04:32:40.937Z,81.80
2018-12-12T04:36:45.959Z,81.64
2018-12-12T04:40:50.932Z,81.46
2018-12-12T04:44:55.807Z,81.23
2018-12-12T04:49:00.785Z,80.99
2018-12-12T04:53:05.775Z,80.91
2018-12-12T04:57:10.719Z,80.85
2018-12-12T05:01:15.733Z,80.75
2018-12-12T05:05:20.822Z,80.73
2018-12-12T05:09:26.031Z,80.76
2018-12-12T05:13:30.962Z,80.75
2018-12-12T05:17:35.905Z,80.74
2018-12-12T05:21:40.779Z,80.71
2018-12-12T05:25:45.707Z,80.77
2018-12-12T05:29:50.981Z,80.64
2018-12-12T05:33:55.998Z,81.02
2018-12-12T05:42:11.101Z,81.30
2018-12-12T05:46:16.081Z,81.57
2018-12-12T05:50:21.030Z,81.56
2018-12-12T05:54:25.977Z,82.06
2018-12-12T05:58:30.944Z,82.23
2018-12-12T06:02:35.832Z,82.48
2018-12-12T06:06:40.774Z,82.14
2018-12-12T06:10:45.739Z,82.18
2018-12-12T06:14:51.162Z,82.10
2018-12-12T06:18:56.120Z,82.14
2018-12-12T06:23:01.091Z,82.16
2018-12-12T06:27:07.550Z,82.07
2018-12-12T06:31:13.202Z,82.03
2018-12-12T06:35:18.155Z,81.92
2018-12-12T06:39:23.144Z,81.89
2018-12-12T06:43:28.011Z,81.89
2018-12-12T06:47:32.931Z,82.11
2018-12-12T06:51:37.905Z,82.22
2018-12-12T06:55:42.893Z,81.84
2018-12-12T06:59:47.894Z,81.74
2018-12-12T07:03:52.887Z,81.58
2018-12-12T07:07:57.861Z,81.58
2018-12-12T07:12:02.787Z,81.55
2018-12-12T07:16:07.743Z,81.65
2018-12-12T07:20:13.137Z,81.62
2018-12-12T07:24:18.114Z,81.57
2018-12-12T07:28:23.133Z,81.44
2018-12-12T07:32:28.517Z,81.39
2018-12-12T07:36:33.490Z,81.47
2018-12-12T07:40:38.360Z,81.51
2018-12-12T07:44:44.383Z,81.08
2018-12-12T07:48:49.287Z,81.00
2018-12-12T07:52:54.236Z,81.23
2018-12-12T07:56:59.346Z,81.03
2018-12-12T08:01:04.235Z,81.00
2018-12-12T08:05:09.370Z,80.95
2018-12-12T08:09:14.388Z,80.94
2018-12-12T08:13:19.273Z,80.85
2018-12-12T08:17:24.695Z,80.81
2018-12-12T08:21:29.729Z,80.86
2018-12-12T08:30:00.621Z,80.89
2018-12-12T08:34:05.985Z,80.95
2018-12-12T08:38:10.989Z,80.99
2018-12-12T08:42:16.016Z,81.04
2018-12-12T08:46:21.063Z,81.04
2018-12-12T08:50:25.965Z,81.04
2018-12-12T08:54:30.942Z,81.26
2018-12-12T08:58:35.919Z,81.33
2018-12-12T09:02:40.901Z,81.19
2018-12-12T09:06:45.875Z,81.16
2018-12-12T09:10:50.842Z,81.22
2018-12-12T09:14:55.879Z,80.93
2018-12-12T09:19:00.857Z,80.80
2018-12-12T09:23:05.920Z,80.69
2018-12-12T09:27:10.888Z,80.90
2018-12-12T09:31:15.841Z,80.86
2018-12-12T09:35:20.833Z,80.92
2018-12-12T09:39:25.888Z,80.88
2018-12-12T09:43:30.873Z,80.92
2018-12-12T09:47:36.314Z,81.10
2018-12-12T09:51:41.292Z,81.11
2018-12-12T09:55:46.184Z,81.03
2018-12-12T09:59:51.192Z,81.03
2018-12-12T10:03:56.820Z,81.04
2018-12-12T10:08:01.806Z,80.99
2018-12-12T10:12:06.790Z,80.86
2018-12-12T10:16:11.772Z,80.66
2018-12-12T10:20:16.761Z,80.61
2018-12-12T10:28:33.948Z,80.56
2018-12-12T10:32:38.927Z,80.47
2018-12-12T10:36:43.925Z,80.29
2018-12-12T10:40:48.822Z,80.21
2018-12-12T10:44:54.130Z,80.17
2018-12-12T10:48:59.510Z,79.98
2018-12-12T10:53:04.472Z,79.86
2018-12-12T10:57:09.534Z,79.76
2018-12-12T11:01:33.134Z,79.72
2018-12-12T11:05:38.121Z,79.81
2018-12-12T11:09:43.117Z,79.73
2018-12-12T11:13:48.151Z,79.80
2018-12-12T11:17:53.164Z,79.78
2018-12-12T11:21:58.203Z,79.60
2018-12-12T11:26:03.167Z,79.61
2018-12-12T11:30:08.276Z,79.34
2018-12-12T11:34:13.239Z,79.03
2018-12-12T11:38:18.313Z,79.01
2018-12-12T11:42:23.346Z,79.20
2018-12-12T11:46:28.748Z,79.08
2018-12-12T11:50:33.731Z,78.97
2018-12-12T11:54:38.940Z,78.78
2018-12-12T11:58:43.833Z,78.87
2018-12-12T12:02:48.871Z,78.71
2018-12-12T12:06:54.389Z,78.66
2018-12-12T12:10:59.458Z,78.86
2018-12-12T12:15:04.417Z,78.82
2018-12-12T12:19:09.509Z,78.41
2018-12-12T12:23:14.546Z,78.28
2018-12-12T12:27:19.549Z,77.97
2018-12-12T12:31:24.646Z,77.92
2018-12-12T12:35:29.609Z,77.69
2018-12-12T12:39:34.631Z,78.01
2018-12-12T12:43:39.598Z,77.33
2018-12-12T12:47:44.561Z,77.14
2018-12-12T12:51:49.580Z,77.63
2018-12-12T12:55:57.570Z,77.34
2018-12-12T13:00:02.586Z,77.12
2018-12-12T13:04:09.896Z,76.80
2018-12-12T13:08:14.499Z,76.75
2018-12-12T13:12:19.583Z,77.02
2018-12-12T13:16:24.590Z,77.00
2018-12-12T13:20:29.622Z,77.14
2018-12-12T13:24:34.534Z,77.69
2018-12-12T13:28:39.510Z,77.59
2018-12-12T13:32:44.449Z,77.79
2018-12-12T13:36:49.427Z,77.84
2018-12-12T13:40:54.408Z,77.89
2018-12-12T13:44:59.390Z,77.90
2018-12-12T13:49:04.395Z,77.83
2018-12-12T13:53:09.364Z,77.98
2018-12-12T13:57:14.282Z,77.86
2018-12-12T14:01:19.405Z,78.05
2018-12-12T14:05:24.404Z,78.20
2018-12-12T14:09:29.409Z,78.30
2018-12-12T14:13:34.392Z,77.67
2018-12-12T14:17:39.358Z,77.44
2018-12-12T14:21:44.349Z,77.54
2018-12-12T14:25:49.365Z,77.78
2018-12-12T14:29:54.301Z,78.37
2018-12-12T14:33:59.300Z,77.98
2018-12-12T14:38:04.245Z,78.07
2018-12-12T14:42:09.189Z,77.93
2018-12-12T14:46:14.162Z,78.10
2018-12-12T14:50:19.151Z,78.20
2018-12-12T14:54:24.120Z,78.17
2018-12-12T14:58:29.066Z,78.33
2018-12-12T15:02:33.970Z,78.27
2018-12-12T15:06:38.869Z,78.28
2018-12-12T15:10:43.826Z,78.23
2018-12-12T15:14:48.769Z,78.32
2018-12-12T15:18:53.724Z,78.34
2018-12-12T15:22:58.825Z,78.40
2018-12-12T15:27:03.781Z,78.22
2018-12-12T15:31:08.772Z,78.18
2018-12-12T15:35:13.764Z,78.13
2018-12-12T15:39:37.543Z,77.92
2018-12-12T15:43:42.567Z,77.73
2018-12-12T15:47:47.612Z,77.71
2018-12-12T15:51:52.523Z,77.54
2018-12-12T15:55:58.046Z,77.55
2018-12-12T16:00:03.053Z,77.67
2018-12-12T16:04:07.988Z,77.86
2018-12-12T16:08:12.994Z,77.87
2018-12-12T16:12:17.917Z,77.85
2018-12-12T16:16:22.806Z,77.72
2018-12-12T16:20:27.871Z,77.62
2018-12-12T16:24:32.852Z,77.44
2018-12-12T16:28:37.860Z,77.29
2018-12-12T16:32:42.906Z,77.33
2018-12-12T16:36:47.828Z,77.53
2018-12-12T16:40:52.742Z,77.47
2018-12-12T16:44:57.756Z,77.46
2018-12-12T16:49:02.912Z,77.46
2018-12-12T16:53:07.891Z,77.22
2018-12-12T16:57:12.924Z,77.16
2018-12-12T17:01:18.095Z,77.21
2018-12-12T17:05:23.198Z,77.18
2018-12-12T17:09:29.826Z,77.19
2018-12-12T17:13:34.794Z,77.28
2018-12-12T17:17:39.908Z,77.35
2018-12-12T17:21:45.910Z,77.39
2018-12-12T17:25:50.877Z,77.33
2018-12-12T17:29:55.825Z,77.30
2018-12-12T17:34:00.767Z,77.30
2018-12-12T17:38:05.647Z,77.28
2018-12-12T17:42:10.602Z,77.18
2018-12-12T17:46:15.640Z,77.06
2018-12-12T17:50:20.540Z,76.88
2018-12-12T17:54:25.485Z,76.79
2018-12-12T17:58:30.450Z,76.88
2018-12-12T18:02:35.444Z,76.76
2018-12-12T18:06:40.420Z,76.71
2018-12-12T18:10:45.394Z,76.66
2018-12-12T18:14:50.406Z,76.73
2018-12-12T18:18:55.433Z,76.77
2018-12-12T18:23:00.422Z,76.76
2018-12-12T18:27:05.380Z,76.70
2018-12-12T18:31:10.273Z,76.75
2018-12-12T18:35:21.739Z,76.92
2018-12-12T18:39:22.192Z,77.04
2018-12-12T18:43:27.155Z,77.03
2018-12-12T18:47:32.134Z,77.16
2018-12-12T18:51:37.029Z,77.27
2018-12-12T18:55:42.009Z,77.54
2018-12-12T18:59:47.373Z,77.55
2018-12-12T19:03:52.293Z,77.59
2018-12-12T19:07:57.234Z,77.62
2018-12-12T19:12:02.209Z,77.56
2018-12-12T19:16:07.131Z,77.81
2018-12-12T19:20:12.180Z,77.60
2018-12-12T19:24:17.109Z,77.66
2018-12-12T19:28:22.080Z,77.83
2018-12-12T19:32:27.071Z,77.89
2018-12-12T19:36:32.005Z,77.87
2018-12-12T19:40:37.232Z,77.97
2018-12-12T19:44:43.471Z,77.70
2018-12-12T19:48:48.572Z,77.54
2018-12-12T19:52:53.716Z,77.73
2018-12-12T19:57:37.934Z,77.77
2018-12-12T20:01:45.805Z,77.64
2018-12-12T20:05:51.210Z,77.47
2018-12-12T20:09:56.239Z,77.37
2018-12-12T20:14:01.340Z,77.25
2018-12-12T20:18:06.438Z,77.16
2018-12-12T20:22:11.483Z,77.13
2018-12-12T20:26:16.560Z,77.07
2018-12-12T20:30:21.524Z,77.02
2018-12-12T20:34:26.438Z,76.87
2018-12-12T20:38:31.379Z,76.70
2018-12-12T20:42:36.354Z,76.57
2018-12-12T20:46:41.215Z,76.51
2018-12-12T20:50:46.211Z,76.39
2018-12-12T20:54:51.183Z,76.23
2018-12-12T20:58:56.294Z,76.07
2018-12-12T21:03:01.290Z,75.95
2018-12-12T21:07:06.343Z,75.87
2018-12-12T21:11:11.336Z,76.11
2018-12-12T21:15:16.515Z,76.22
2018-12-12T21:19:21.579Z,76.31
2018-12-12T21:23:26.609Z,76.30
2018-12-12T21:27:31.564Z,76.22
2018-12-12T21:31:36.858Z,75.89
2018-12-12T21:40:06.710Z,75.86
2018-12-12T21:44:11.680Z,75.81
2018-12-12T21:48:16.601Z,75.68
2018-12-12T21:52:21.537Z,75.58
2018-12-12T21:56:26.532Z,75.72
2018-12-12T22:00:31.446Z,75.94
2018-12-12T22:04:37.413Z,76.08
2018-12-12T22:08:43.277Z,76.41
2018-12-12T22:12:48.318Z,76.59
2018-12-12T22:17:12.175Z,76.44
2018-12-12T22:21:17.191Z,76.24
2018-12-12T22:25:22.161Z,76.25
2018-12-12T22:29:27.147Z,76.36
2018-12-12T22:33:32.071Z,76.49
2018-12-12T22:37:37.436Z,76.61
2018-12-12T22:41:42.366Z,76.69
2018-12-12T22:45:47.372Z,76.86
2018-12-12T22:49:52.425Z,76.95
2018-12-12T22:53:57.374Z,77.20
2018-12-12T22:58:02.320Z,77.18
2018-12-12T23:02:07.586Z,77.24
2018-12-12T23:06:12.600Z,77.58
2018-12-12T23:10:17.592Z,77.43
2018-12-12T23:14:22.528Z,77.43
2018-12-12T23:18:27.506Z,77.32
2018-12-12T23:22:32.560Z,77.36
2018-12-12T23:26:37.599Z,77.40
2018-12-12T23:30:42.640Z,77.26
2018-12-12T23:34:47.577Z,77.11
2018-12-12T23:38:52.506Z,76.74
2018-12-12T23:42:57.480Z,76.62
2018-12-12T23:47:02.417Z,76.51
2018-12-12T23:51:07.387Z,76.64
2018-12-12T23:55:12.371Z,76.88
2018-12-12T23:59:17.309Z,76.82
